Derry, United Kingdom
Current Conditions -  °F | °C
As of 8:50 AM on Thursday 23 Oct 2014 (Local Time) from EGAE Reporting Station
Scattered Clouds Scattered Clouds  
Wind Chill: 13°   Ceiling: Unl
Heat Index: 13°   Visibility: 6mi
Dew Point: 11°   Wind: 14mph
Humidity: 88%   Direction: 210°SSW
Pressure: 29.77"   Gusts: NA
Location:  55°N, 7.31°W
Report Text: EGAE 230750Z 21012KT 9999 FEW013 SCT036 13/11 Q1008
Loading
Personal Weather Stations






























Interactive Weather Map
Tropical Storm Tracking
New forecast layout! Learn more

10-Day Weather Forecast

Advertisements
Track Severe Weather on mobile